createdAt,value
2022-10-11T00:00:11.457Z,84.91
2022-10-11T00:02:38.799Z,85.13
2022-10-11T00:05:05.985Z,85.04
2022-10-11T00:07:32.748Z,85.34
2022-10-11T00:09:59.990Z,84.66
2022-10-11T00:12:26.848Z,85.47
2022-10-11T00:14:53.651Z,85.08
2022-10-11T00:17:20.568Z,85.38
2022-10-11T00:19:47.353Z,84.79
2022-10-11T00:22:14.608Z,85.33
2022-10-11T00:24:41.514Z,85.31
2022-10-11T00:27:08.351Z,85.52
2022-10-11T00:29:35.303Z,85.32
2022-10-11T00:32:02.080Z,85.55
2022-10-11T00:34:28.878Z,86.53
2022-10-11T00:36:55.852Z,85.44
2022-10-11T00:39:23.120Z,85.46
2022-10-11T00:41:50.093Z,85.92
2022-10-11T00:44:22.982Z,86.17
2022-10-11T00:47:03.271Z,86.38
2022-10-11T00:49:39.325Z,86.80
2022-10-11T00:52:14.435Z,86.49
2022-10-11T00:54:43.784Z,85.58
2022-10-11T00:57:17.064Z,86.23
2022-10-11T00:59:49.351Z,84.97
2022-10-11T01:02:17.871Z,85.53
2022-10-11T01:04:45.956Z,85.10
2022-10-11T01:07:13.402Z,86.24
2022-10-11T01:09:40.273Z,85.88
2022-10-11T01:12:18.757Z,86.05
2022-10-11T01:14:54.763Z,85.66
2022-10-11T01:17:43.038Z,85.73
2022-10-11T01:20:12.679Z,85.67
2022-10-11T01:22:55.168Z,86.58
2022-10-11T01:25:56.160Z,85.81
2022-10-11T01:28:52.522Z,86.55
2022-10-11T01:31:37.206Z,85.98
2022-10-11T01:34:15.307Z,87.12
2022-10-11T01:36:49.835Z,86.58
2022-10-11T01:39:44.348Z,85.44
2022-10-11T01:42:13.357Z,86.30
2022-10-11T01:44:43.119Z,86.28
2022-10-11T01:47:09.957Z,86.02
2022-10-11T01:49:36.837Z,85.80
2022-10-11T01:52:07.161Z,85.86
2022-10-11T01:55:08.648Z,86.77
2022-10-11T01:58:08.048Z,86.98
2022-10-11T02:00:52.379Z,87.41
2022-10-11T02:03:42.173Z,86.78
2022-10-11T02:06:24.197Z,87.16
2022-10-11T02:09:08.413Z,86.87
2022-10-11T02:11:36.892Z,87.69
2022-10-11T02:14:11.870Z,88.12
2022-10-11T02:16:46.642Z,87.46
2022-10-11T02:19:17.101Z,87.16
2022-10-11T02:21:47.432Z,87.91
2022-10-11T02:24:22.351Z,87.38
2022-10-11T02:26:53.048Z,87.32
2022-10-11T02:29:22.957Z,87.52
2022-10-11T02:31:51.283Z,87.53
2022-10-11T02:34:27.016Z,88.02
2022-10-11T02:37:15.984Z,88.38
2022-10-11T02:39:49.021Z,88.12
2022-10-11T02:42:24.546Z,87.86
2022-10-11T02:44:56.620Z,88.68
2022-10-11T02:47:23.702Z,88.98
2022-10-11T02:49:50.594Z,88.05
2022-10-11T02:52:17.503Z,87.88
2022-10-11T02:54:44.345Z,88.26
2022-10-11T02:57:11.245Z,87.77
2022-10-11T02:59:38.163Z,86.88
2022-10-11T03:02:05.126Z,87.39
2022-10-11T03:04:32.465Z,88.02
2022-10-11T03:06:59.230Z,87.88
2022-10-11T03:09:26.305Z,87.98
2022-10-11T03:11:53.083Z,88.70
2022-10-11T03:14:19.896Z,89.37
2022-10-11T03:16:46.673Z,88.47
2022-10-11T03:19:18.316Z,88.96
2022-10-11T03:21:46.113Z,89.57
2022-10-11T03:24:13.006Z,88.85
2022-10-11T03:26:39.738Z,89.42
2022-10-11T03:29:06.627Z,89.46
2022-10-11T03:31:33.426Z,89.83
2022-10-11T03:34:00.207Z,89.63
2022-10-11T03:36:27.025Z,88.77
2022-10-11T03:38:53.848Z,89.77
2022-10-11T03:41:20.764Z,90.20
2022-10-11T03:43:47.730Z,90.25
2022-10-11T03:46:14.504Z,90.56
2022-10-11T03:48:41.359Z,91.99
2022-10-11T03:51:08.186Z,92.55
2022-10-11T03:53:35.071Z,93.43
2022-10-11T03:56:07.359Z,93.01
2022-10-11T03:58:35.412Z,93.45
2022-10-11T04:01:02.310Z,94.05
2022-10-11T04:03:31.812Z,93.45
2022-10-11T04:06:01.311Z,93.78
2022-10-11T04:08:28.159Z,93.20
2022-10-11T04:10:54.980Z,94.16
2022-10-11T04:13:21.995Z,94.84
2022-10-11T04:15:48.681Z,94.11
2022-10-11T04:18:15.713Z,93.94
2022-10-11T04:20:42.422Z,94.46
2022-10-11T04:23:09.472Z,94.96
2022-10-11T04:25:40.495Z,94.99
2022-10-11T04:28:07.600Z,95.04
2022-10-11T04:30:34.491Z,94.69
2022-10-11T04:33:02.927Z,95.27
2022-10-11T04:35:29.693Z,94.57
2022-10-11T04:37:56.832Z,94.84
2022-10-11T04:40:23.742Z,94.14
2022-10-11T04:42:50.475Z,94.57
2022-10-11T04:45:17.316Z,93.19
2022-10-11T04:47:44.127Z,92.68
2022-10-11T04:50:11.016Z,92.11
2022-10-11T04:52:37.806Z,92.83
2022-10-11T04:55:05.023Z,93.52
2022-10-11T04:57:32.237Z,92.86
2022-10-11T04:59:59.209Z,92.70
2022-10-11T05:02:26.130Z,91.86
2022-10-11T05:04:52.876Z,91.60
2022-10-11T05:07:20.094Z,91.20
2022-10-11T05:09:46.868Z,90.92
2022-10-11T05:12:13.659Z,90.74
2022-10-11T05:14:40.469Z,90.73
2022-10-11T05:17:07.488Z,89.79
2022-10-11T05:19:34.255Z,90.58
2022-10-11T05:22:01.100Z,90.02
2022-10-11T05:24:27.927Z,90.72
2022-10-11T05:26:54.725Z,92.17
2022-10-11T05:29:21.501Z,93.01
2022-10-11T05:31:48.381Z,92.60
2022-10-11T05:34:15.243Z,92.40
2022-10-11T05:36:42.012Z,92.67
2022-10-11T05:39:09.248Z,92.32
2022-10-11T05:41:36.030Z,91.94
2022-10-11T05:44:02.834Z,92.68
2022-10-11T05:46:29.692Z,92.50
2022-10-11T05:48:56.492Z,92.92
2022-10-11T05:51:23.584Z,93.56
2022-10-11T05:53:50.355Z,94.70
2022-10-11T05:56:23.085Z,94.56
2022-10-11T05:58:50.810Z,94.75
2022-10-11T06:01:23.293Z,94.70
2022-10-11T06:03:50.260Z,95.18
2022-10-11T06:06:17.844Z,94.74
2022-10-11T06:08:44.797Z,93.90
2022-10-11T06:11:12.439Z,94.26
2022-10-11T06:13:39.772Z,94.94
2022-10-11T06:16:08.231Z,94.48
2022-10-11T06:18:35.225Z,93.49
2022-10-11T06:21:02.639Z,94.54
2022-10-11T06:23:29.675Z,94.69
2022-10-11T06:26:00.828Z,94.48
2022-10-11T06:28:29.346Z,94.56
2022-10-11T06:30:56.729Z,94.26
2022-10-11T06:33:24.651Z,93.22
2022-10-11T06:35:58.881Z,92.61
2022-10-11T06:38:26.130Z,93.28
2022-10-11T06:40:53.052Z,92.94
2022-10-11T06:43:20.079Z,92.45
2022-10-11T06:45:46.860Z,92.89
2022-10-11T06:48:14.413Z,91.91
2022-10-11T06:50:59.220Z,91.53
2022-10-11T06:53:28.355Z,91.60
2022-10-11T06:56:02.992Z,90.88
2022-10-11T06:58:30.515Z,90.15
2022-10-11T07:01:05.550Z,89.68
2022-10-11T07:03:33.056Z,89.21
2022-10-11T07:06:08.445Z,88.51
2022-10-11T07:08:36.600Z,88.69
2022-10-11T07:11:08.862Z,87.60
2022-10-11T07:13:36.600Z,87.85
2022-10-11T07:16:05.875Z,87.48
2022-10-11T07:18:33.048Z,87.85
2022-10-11T07:21:04.202Z,86.58
2022-10-11T07:23:31.411Z,85.27
2022-10-11T07:25:58.628Z,84.36
2022-10-11T07:28:25.831Z,84.25
2022-10-11T07:30:52.767Z,83.18
2022-10-11T07:33:19.789Z,83.28
2022-10-11T07:35:48.618Z,83.21
2022-10-11T07:38:16.883Z,82.63
2022-10-11T07:40:47.340Z,81.88
2022-10-11T07:43:14.323Z,80.35
2022-10-11T07:45:42.756Z,80.83
2022-10-11T07:48:09.702Z,79.93
2022-10-11T07:50:36.572Z,80.50
2022-10-11T07:53:03.879Z,80.96
2022-10-11T07:55:34.827Z,80.45
2022-10-11T07:58:01.607Z,79.15
2022-10-11T08:00:28.378Z,79.18
2022-10-11T08:02:55.395Z,78.47
2022-10-11T08:05:22.198Z,76.32
2022-10-11T08:07:50.021Z,76.30
2022-10-11T08:10:16.857Z,76.63
2022-10-11T08:12:43.620Z,76.56
2022-10-11T08:15:11.048Z,76.25
2022-10-11T08:17:37.857Z,75.55
2022-10-11T08:20:05.619Z,76.01
2022-10-11T08:22:33.020Z,73.76
2022-10-11T08:24:59.790Z,73.38
2022-10-11T08:27:26.618Z,74.02
2022-10-11T08:29:53.573Z,73.95
2022-10-11T08:32:20.295Z,73.78
2022-10-11T08:34:47.102Z,73.71
2022-10-11T08:37:14.659Z,73.22
2022-10-11T08:39:41.394Z,73.43
2022-10-11T08:42:23.754Z,73.77
2022-10-11T08:45:10.705Z,73.14
2022-10-11T08:47:44.224Z,73.45
2022-10-11T08:50:19.525Z,72.50
2022-10-11T08:53:15.704Z,72.39
2022-10-11T08:55:49.087Z,72.45
2022-10-11T08:58:20.529Z,71.24
2022-10-11T09:00:51.428Z,71.21
2022-10-11T09:03:33.399Z,70.34
2022-10-11T09:06:12.619Z,70.48
2022-10-11T09:08:53.561Z,70.40
2022-10-11T09:11:32.723Z,70.47
2022-10-11T09:14:34.403Z,70.55
2022-10-11T09:17:38.463Z,68.80
2022-10-11T09:20:25.689Z,69.66
2022-10-11T09:23:26.534Z,69.99
2022-10-11T09:26:06.420Z,70.23
2022-10-11T09:28:51.683Z,69.70
2022-10-11T09:31:18.774Z,69.19
2022-10-11T09:33:51.015Z,69.29
2022-10-11T09:36:37.425Z,69.56
2022-10-11T09:39:06.708Z,68.07
2022-10-11T09:41:43.024Z,68.38
2022-10-11T09:44:19.839Z,67.97
2022-10-11T09:46:48.788Z,67.20
2022-10-11T09:49:19.686Z,66.50
2022-10-11T09:51:57.060Z,67.23
2022-10-11T09:54:45.678Z,67.24
2022-10-11T09:57:20.487Z,64.92
2022-10-11T10:00:11.975Z,65.04
2022-10-11T10:02:46.884Z,65.66
2022-10-11T10:05:17.922Z,65.31
2022-10-11T10:08:06.145Z,65.07
2022-10-11T10:10:46.125Z,65.83
2022-10-11T10:13:21.020Z,64.73
2022-10-11T10:15:50.985Z,63.96
2022-10-11T10:18:24.536Z,64.38
2022-10-11T10:20:54.634Z,63.55
2022-10-11T10:23:33.228Z,63.14
2022-10-11T10:26:29.177Z,61.75
2022-10-11T10:29:15.272Z,61.64
2022-10-11T10:32:09.258Z,61.35
2022-10-11T10:34:37.208Z,58.88
2022-10-11T10:37:20.079Z,60.03
2022-10-11T10:39:54.060Z,60.02
2022-10-11T10:42:21.419Z,60.08
2022-10-11T10:44:57.358Z,60.70
2022-10-11T10:47:47.703Z,59.94
2022-10-11T10:50:28.597Z,58.48
2022-10-11T10:53:13.914Z,56.72
2022-10-11T10:55:45.471Z,58.29
2022-10-11T10:58:27.611Z,59.26
2022-10-11T11:01:19.533Z,57.94
2022-10-11T11:03:58.323Z,58.90
2022-10-11T11:07:09.636Z,57.68
2022-10-11T11:09:55.547Z,58.82
2022-10-11T11:12:41.017Z,57.19
2022-10-11T11:15:43.800Z,57.54
2022-10-11T11:18:34.870Z,57.40
2022-10-11T11:21:30.827Z,57.19
2022-10-11T11:24:06.840Z,55.68
2022-10-11T11:26:44.052Z,54.67
2022-10-11T11:29:37.279Z,52.77
2022-10-11T11:32:18.639Z,52.79
2022-10-11T11:34:56.211Z,53.13
2022-10-11T11:37:31.756Z,52.97
2022-10-11T11:40:05.983Z,53.16
2022-10-11T11:42:47.749Z,53.88
2022-10-11T11:45:20.202Z,53.76
2022-10-11T11:47:56.760Z,54.53
2022-10-11T11:50:25.653Z,53.43
2022-10-11T11:53:18.146Z,52.08
2022-10-11T11:56:05.085Z,52.46
2022-10-11T11:58:37.652Z,53.14
2022-10-11T12:01:18.885Z,52.87
2022-10-11T12:03:50.722Z,52.21
2022-10-11T12:06:22.304Z,52.05
2022-10-11T12:09:24.887Z,52.31
2022-10-11T12:11:58.468Z,53.44
2022-10-11T12:14:29.735Z,52.03
2022-10-11T12:17:07.829Z,51.61
2022-10-11T12:19:36.618Z,51.86
2022-10-11T12:22:27.788Z,51.74
2022-10-11T12:24:58.859Z,51.53
2022-10-11T12:27:44.782Z,52.17
2022-10-11T12:30:45.779Z,52.83
2022-10-11T12:33:25.779Z,53.01
2022-10-11T12:35:55.619Z,52.44
2022-10-11T12:38:32.548Z,52.28
2022-10-11T12:41:11.724Z,50.60
2022-10-11T12:43:47.636Z,50.75
2022-10-11T12:46:53.014Z,51.47
2022-10-11T12:49:32.051Z,52.16
2022-10-11T12:52:18.529Z,52.29
2022-10-11T12:55:06.947Z,52.11
2022-10-11T12:58:05.144Z,51.72
2022-10-11T13:00:40.937Z,51.02
2022-10-11T13:03:48.034Z,51.17
2022-10-11T13:06:14.750Z,49.73
2022-10-11T13:08:45.357Z,50.71
2022-10-11T13:11:20.482Z,51.87
2022-10-11T13:13:55.502Z,51.16
2022-10-11T13:16:27.011Z,50.55
2022-10-11T13:18:59.938Z,50.84
2022-10-11T13:21:36.812Z,51.71
2022-10-11T13:24:12.853Z,51.68
2022-10-11T13:26:40.700Z,52.17
2022-10-11T13:29:42.013Z,51.97
2022-10-11T13:32:24.792Z,52.16
2022-10-11T13:35:01.786Z,51.90
2022-10-11T13:37:30.957Z,52.16
2022-10-11T13:39:58.554Z,51.64
2022-10-11T13:42:31.614Z,50.47
2022-10-11T13:44:59.926Z,50.74
2022-10-11T13:47:29.809Z,50.88
2022-10-11T13:50:09.239Z,50.55
2022-10-11T13:52:36.039Z,48.74
2022-10-11T13:55:05.588Z,49.81
2022-10-11T13:57:45.900Z,49.53
2022-10-11T14:00:16.497Z,49.99
2022-10-11T14:02:59.994Z,49.51
2022-10-11T14:05:31.471Z,49.27
2022-10-11T14:08:05.186Z,49.50
2022-10-11T14:10:33.111Z,49.64
2022-10-11T14:13:07.009Z,50.37
2022-10-11T14:15:36.907Z,50.10
2022-10-11T14:18:41.439Z,50.41
2022-10-11T14:21:20.192Z,50.62
2022-10-11T14:23:50.323Z,50.73
2022-10-11T14:26:18.879Z,50.75
2022-10-11T14:28:49.501Z,51.28
2022-10-11T14:31:16.349Z,51.62
2022-10-11T14:33:43.262Z,51.18
2022-10-11T14:36:11.017Z,51.28
2022-10-11T14:38:37.852Z,50.86
2022-10-11T14:41:04.740Z,51.47
2022-10-11T14:43:31.507Z,51.87
2022-10-11T14:45:58.347Z,51.45
2022-10-11T14:48:53.617Z,51.79
2022-10-11T14:51:14.755Z,51.73
2022-10-11T14:53:41.603Z,51.97
2022-10-11T14:56:08.672Z,52.42
2022-10-11T14:58:35.618Z,52.51
2022-10-11T15:01:02.562Z,52.11
2022-10-11T15:03:29.597Z,51.83
2022-10-11T15:05:56.524Z,52.05
2022-10-11T15:08:23.201Z,52.36
2022-10-11T15:10:49.982Z,52.66
2022-10-11T15:13:16.781Z,52.91
2022-10-11T15:15:44.015Z,52.83
2022-10-11T15:18:13.402Z,52.69
2022-10-11T15:20:43.663Z,52.62
2022-10-11T15:23:11.295Z,53.02
2022-10-11T15:25:39.725Z,53.24
2022-10-11T15:28:07.415Z,53.42
2022-10-11T15:30:41.019Z,53.49
2022-10-11T15:33:09.051Z,53.41
2022-10-11T15:35:35.936Z,53.51
2022-10-11T15:38:03.394Z,53.40
2022-10-11T15:40:35.549Z,53.25
2022-10-11T15:43:03.771Z,53.26
2022-10-11T15:45:30.687Z,53.53
2022-10-11T15:47:58.058Z,53.60
2022-10-11T15:50:28.429Z,53.63
2022-10-11T15:52:55.172Z,53.49
2022-10-11T15:55:21.960Z,53.63
2022-10-11T15:57:48.719Z,53.86
2022-10-11T16:00:21.298Z,54.04
2022-10-11T16:02:50.970Z,54.05
2022-10-11T16:05:26.893Z,54.22
2022-10-11T16:07:54.553Z,54.47
2022-10-11T16:10:21.453Z,54.56
2022-10-11T16:12:48.401Z,54.47
2022-10-11T16:15:15.814Z,54.71
2022-10-11T16:17:42.572Z,54.83
2022-10-11T16:20:09.476Z,54.79
2022-10-11T16:22:36.536Z,55.09
2022-10-11T16:25:04.763Z,55.27
2022-10-11T16:27:32.282Z,55.72
2022-10-11T16:30:00.651Z,55.91
2022-10-11T16:32:27.788Z,56.24
2022-10-11T16:34:54.648Z,56.55
2022-10-11T16:37:21.338Z,57.08
2022-10-11T16:39:48.165Z,57.25
2022-10-11T16:42:15.026Z,57.42
2022-10-11T16:44:41.983Z,57.71
2022-10-11T16:47:08.811Z,58.18
2022-10-11T16:49:35.618Z,58.02
2022-10-11T16:52:02.443Z,58.85
2022-10-11T16:54:29.641Z,58.91
2022-10-11T16:56:57.678Z,58.66
2022-10-11T16:59:25.452Z,59.41
2022-10-11T17:01:52.420Z,59.46
2022-10-11T17:04:19.195Z,59.80
2022-10-11T17:06:45.954Z,60.03
2022-10-11T17:09:13.008Z,60.44
2022-10-11T17:11:40.263Z,60.59
2022-10-11T17:14:07.083Z,60.52
2022-10-11T17:16:34.949Z,60.83
2022-10-11T17:19:02.242Z,60.98
2022-10-11T17:21:29.166Z,61.19
2022-10-11T17:23:56.205Z,61.41
2022-10-11T17:26:26.228Z,61.27
2022-10-11T17:28:55.302Z,61.85
2022-10-11T17:31:23.378Z,61.81
2022-10-11T17:33:50.805Z,62.36
2022-10-11T17:36:24.215Z,62.16
2022-10-11T17:38:52.335Z,64.38
2022-10-11T17:41:20.165Z,65.16
2022-10-11T17:43:48.209Z,65.56
2022-10-11T17:46:17.248Z,66.15
2022-10-11T17:48:44.724Z,66.59
2022-10-11T17:51:17.996Z,67.44
2022-10-11T17:53:47.119Z,67.58
2022-10-11T17:56:16.273Z,68.17
2022-10-11T17:58:43.779Z,68.29
2022-10-11T18:01:14.253Z,69.07
2022-10-11T18:03:42.423Z,70.55
2022-10-11T18:06:12.934Z,71.22
2022-10-11T18:08:41.167Z,72.49
2022-10-11T18:11:13.287Z,72.57
2022-10-11T18:13:41.016Z,71.28
2022-10-11T18:16:10.670Z,70.97
2022-10-11T18:18:38.615Z,70.36
2022-10-11T18:21:05.900Z,71.36
2022-10-11T18:23:33.007Z,71.09
2022-10-11T18:25:59.887Z,71.20
2022-10-11T18:28:27.110Z,71.49
2022-10-11T18:30:54.830Z,71.47
2022-10-11T18:33:22.025Z,72.49
2022-10-11T18:35:49.902Z,72.34
2022-10-11T18:38:17.678Z,72.07
2022-10-11T18:40:47.274Z,72.57
2022-10-11T18:43:14.394Z,72.96
2022-10-11T18:45:41.560Z,72.39
2022-10-11T18:48:09.058Z,72.74
2022-10-11T18:50:36.444Z,73.11
2022-10-11T18:55:35.890Z,73.67
2022-10-11T18:58:03.754Z,73.72
2022-10-11T19:00:40.798Z,73.31
2022-10-11T19:03:08.422Z,73.07
2022-10-11T19:05:39.126Z,73.70
2022-10-11T19:08:06.354Z,73.88
2022-10-11T19:10:34.743Z,73.39
2022-10-11T19:13:02.445Z,73.25
2022-10-11T19:15:29.593Z,74.66
2022-10-11T19:17:57.056Z,75.10
2022-10-11T19:20:23.946Z,75.42
2022-10-11T19:22:51.579Z,74.40
2022-10-11T19:25:18.905Z,74.23
2022-10-11T19:27:46.617Z,73.76
2022-10-11T19:30:13.524Z,74.03
2022-10-11T19:32:40.524Z,73.94
2022-10-11T19:35:08.497Z,75.02
2022-10-11T19:37:35.479Z,75.91
2022-10-11T19:40:02.738Z,77.32
2022-10-11T19:42:29.970Z,77.31
2022-10-11T19:44:57.129Z,77.96
2022-10-11T19:47:24.851Z,78.24
2022-10-11T19:49:52.370Z,78.13
2022-10-11T19:52:19.967Z,76.25
2022-10-11T19:54:47.031Z,76.30
2022-10-11T19:57:14.451Z,77.24
2022-10-11T19:59:41.545Z,77.46
2022-10-11T20:02:12.961Z,77.51
2022-10-11T20:04:51.996Z,79.10
2022-10-11T20:07:19.358Z,79.30
2022-10-11T20:09:46.272Z,79.81
2022-10-11T20:12:13.095Z,79.23
2022-10-11T20:14:39.842Z,78.05
2022-10-11T20:17:06.653Z,77.64
2022-10-11T20:19:33.365Z,78.43
2022-10-11T20:22:01.185Z,76.79
2022-10-11T20:24:28.625Z,75.55
2022-10-11T20:26:55.646Z,75.49
2022-10-11T20:29:24.326Z,74.85
2022-10-11T20:31:51.467Z,74.09
2022-10-11T20:34:18.306Z,74.10
2022-10-11T20:36:48.967Z,75.73
2022-10-11T20:39:16.751Z,75.69
2022-10-11T20:41:43.556Z,77.16
2022-10-11T20:44:10.842Z,77.74
2022-10-11T20:46:39.205Z,77.90
2022-10-11T20:49:11.895Z,77.80
2022-10-11T20:51:40.837Z,77.88
2022-10-11T20:54:07.648Z,78.35
2022-10-11T20:56:35.111Z,78.08
2022-10-11T20:59:02.142Z,78.18
2022-10-11T21:01:54.042Z,77.42
2022-10-11T21:04:20.812Z,77.22
2022-10-11T21:06:49.265Z,78.42
2022-10-11T21:09:17.226Z,78.23
2022-10-11T21:11:44.272Z,77.46
2022-10-11T21:14:11.292Z,76.67
2022-10-11T21:16:38.074Z,77.17
2022-10-11T21:19:04.844Z,77.07
2022-10-11T21:21:31.777Z,77.54
2022-10-11T21:24:02.456Z,77.60
2022-10-11T21:26:30.474Z,77.47
2022-10-11T21:28:57.884Z,76.92
2022-10-11T21:31:26.625Z,77.01
2022-10-11T21:33:57.458Z,77.31
2022-10-11T21:36:24.305Z,77.54
2022-10-11T21:38:52.160Z,77.51
2022-10-11T21:41:22.837Z,78.25
2022-10-11T21:43:49.742Z,77.89
2022-10-11T21:46:54.045Z,78.10
2022-10-11T21:49:17.053Z,78.27
2022-10-11T21:51:43.994Z,78.72
2022-10-11T21:54:10.834Z,78.29
2022-10-11T21:56:37.884Z,77.96
2022-10-11T21:59:06.696Z,78.59
2022-10-11T22:01:36.767Z,78.37
2022-10-11T22:04:05.362Z,77.93
2022-10-11T22:06:32.397Z,77.93
2022-10-11T22:08:59.299Z,78.79
2022-10-11T22:11:27.260Z,78.82
2022-10-11T22:13:54.153Z,78.69
2022-10-11T22:16:21.120Z,78.13
2022-10-11T22:18:48.113Z,78.14
2022-10-11T22:21:20.812Z,77.42
2022-10-11T22:23:49.727Z,77.22
2022-10-11T22:26:22.004Z,77.54
2022-10-11T22:28:49.103Z,76.72
2022-10-11T22:31:18.639Z,76.48
2022-10-11T22:36:17.315Z,76.87
2022-10-11T22:38:44.144Z,77.80
2022-10-11T22:41:11.854Z,78.73
2022-10-11T22:43:39.458Z,78.43
2022-10-11T22:46:07.024Z,79.01
2022-10-11T22:48:34.063Z,78.10
2022-10-11T22:51:01.564Z,78.78
2022-10-11T22:53:28.483Z,79.10
2022-10-11T22:55:55.375Z,78.39
2022-10-11T22:58:22.415Z,77.54
2022-10-11T23:00:49.268Z,77.26
2022-10-11T23:03:17.678Z,76.71
2022-10-11T23:05:44.656Z,76.28
2022-10-11T23:08:11.382Z,76.16
2022-10-11T23:10:39.672Z,76.46
2022-10-11T23:13:06.474Z,76.70
2022-10-11T23:15:33.277Z,75.81
2022-10-11T23:18:00.052Z,75.90
2022-10-11T23:20:27.165Z,75.98
2022-10-11T23:22:53.878Z,76.24
2022-10-11T23:25:20.687Z,76.13
2022-10-11T23:27:47.410Z,75.46
2022-10-11T23:30:14.286Z,76.46
2022-10-11T23:32:41.037Z,76.50
2022-10-11T23:35:08.381Z,76.08
2022-10-11T23:37:36.279Z,76.45
2022-10-11T23:40:04.159Z,76.81
2022-10-11T23:42:30.968Z,78.20
2022-10-11T23:44:57.711Z,79.22
2022-10-11T23:47:24.508Z,80.08
2022-10-11T23:49:51.328Z,79.40
2022-10-11T23:52:18.129Z,79.13
2022-10-11T23:54:44.942Z,79.08
2022-10-11T23:57:12.543Z,78.81
2022-10-11T23:59:39.271Z,78.95
